createdAt,value
2018-01-19T00:00:51.290Z,86.50
2018-01-19T00:03:17.286Z,86.40
2018-01-19T00:05:43.321Z,86.40
2018-01-19T00:08:09.315Z,85.90
2018-01-19T00:10:36.071Z,85.60
2018-01-19T00:13:02.882Z,86.10
2018-01-19T00:15:28.863Z,86.10
2018-01-19T00:17:55.639Z,86.50
2018-01-19T00:20:22.375Z,86.40
2018-01-19T00:22:49.142Z,85.90
2018-01-19T00:25:15.134Z,85.90
2018-01-19T00:27:41.129Z,85.60
2018-01-19T00:30:07.132Z,85.70
2018-01-19T00:32:33.126Z,85.20
2018-01-19T00:34:59.127Z,86.20
2018-01-19T00:37:25.102Z,86.80
2018-01-19T00:39:51.106Z,87.10
2018-01-19T00:42:17.171Z,87.80
2018-01-19T00:44:43.203Z,88.10
2018-01-19T00:47:09.188Z,87.90
2018-01-19T00:49:35.866Z,87.60
2018-01-19T00:52:01.816Z,87.60
2018-01-19T00:54:27.786Z,87.40
2018-01-19T00:56:53.745Z,86.20
2018-01-19T00:59:19.713Z,85.60
2018-01-19T01:01:45.671Z,85.80
2018-01-19T01:04:11.651Z,86.50
2018-01-19T01:06:38.344Z,86.80
2018-01-19T01:09:05.050Z,86.90
2018-01-19T01:11:31.038Z,86.80
2018-01-19T01:13:56.977Z,86.80
2018-01-19T01:16:22.935Z,86.90
2018-01-19T01:18:48.877Z,87.70
2018-01-19T01:21:14.904Z,88.00
2018-01-19T01:23:40.863Z,88.50
2018-01-19T01:26:07.558Z,87.50
2018-01-19T01:28:33.506Z,87.40
2018-01-19T01:30:59.462Z,86.60
2018-01-19T01:33:25.411Z,85.60
2018-01-19T01:35:51.346Z,84.40
2018-01-19T01:38:17.311Z,84.80
2018-01-19T01:40:43.286Z,84.60
2018-01-19T01:43:09.254Z,84.00
2018-01-19T01:45:35.190Z,83.70
2018-01-19T01:48:01.872Z,84.10
2018-01-19T01:50:27.817Z,83.30
2018-01-19T01:52:53.771Z,82.40
2018-01-19T02:15:17.131Z,82.50
2018-01-19T02:17:43.098Z,82.10
2018-01-19T02:20:09.070Z,81.50
2018-01-19T02:22:35.006Z,81.70
2018-01-19T02:25:00.962Z,81.80
2018-01-19T02:27:26.920Z,81.40
2018-01-19T02:29:53.605Z,82.30
2018-01-19T02:32:19.583Z,82.30
2018-01-19T02:34:45.566Z,82.30
2018-01-19T02:37:11.503Z,82.00
2018-01-19T02:39:37.434Z,81.80
2018-01-19T02:42:03.520Z,82.00
2018-01-19T02:44:29.467Z,82.10
2018-01-19T02:46:55.395Z,83.10
2018-01-19T02:49:22.812Z,83.30
2018-01-19T02:51:48.780Z,83.40
2018-01-19T02:54:14.756Z,83.40
2018-01-19T02:56:41.478Z,84.50
2018-01-19T02:59:07.405Z,84.40
2018-01-19T03:01:33.338Z,84.60
2018-01-19T03:03:59.254Z,84.00
2018-01-19T03:06:25.201Z,83.90
2018-01-19T03:08:51.179Z,84.00
2018-01-19T03:11:17.930Z,85.20
2018-01-19T03:13:44.676Z,86.10
2018-01-19T03:16:11.405Z,85.30
2018-01-19T03:18:37.378Z,85.30
2018-01-19T03:21:04.056Z,84.40
2018-01-19T03:23:29.989Z,84.40
2018-01-19T03:25:55.947Z,84.60
2018-01-19T03:28:21.930Z,85.10
2018-01-19T03:30:48.626Z,84.50
2018-01-19T03:33:14.612Z,84.50
2018-01-19T03:35:40.562Z,83.50
2018-01-19T03:38:07.241Z,84.20
2018-01-19T03:40:33.190Z,84.20
2018-01-19T03:42:59.130Z,84.20
2018-01-19T03:45:25.061Z,83.50
2018-01-19T03:47:51.045Z,83.20
2018-01-19T03:50:17.778Z,82.60
2018-01-19T03:52:43.790Z,82.50
2018-01-19T03:55:09.731Z,83.20
2018-01-19T03:57:35.675Z,83.30
2018-01-19T04:00:01.621Z,82.60
2018-01-19T04:02:27.556Z,82.90
2018-01-19T04:04:53.481Z,82.50
2018-01-19T04:07:19.430Z,82.50
2018-01-19T04:09:45.439Z,82.10
2018-01-19T04:12:11.408Z,82.30
2018-01-19T04:14:38.082Z,82.50
2018-01-19T04:17:04.002Z,82.50
2018-01-19T04:19:30.672Z,81.70
2018-01-19T04:21:56.602Z,81.70
2018-01-19T04:24:22.547Z,81.20
2018-01-19T04:26:48.532Z,81.40
2018-01-19T04:29:14.470Z,82.10
2018-01-19T04:31:41.166Z,83.30
2018-01-19T04:34:07.108Z,83.30
2018-01-19T04:36:33.066Z,83.60
2018-01-19T04:38:59.009Z,83.10
2018-01-19T04:41:24.978Z,82.00
2018-01-19T04:43:50.956Z,81.60
2018-01-19T04:46:16.961Z,81.50
2018-01-19T04:48:42.984Z,82.00
2018-01-19T04:51:09.669Z,82.90
2018-01-19T04:53:35.653Z,82.80
2018-01-19T04:56:01.581Z,82.70
2018-01-19T04:58:27.526Z,83.30
2018-01-19T05:00:53.459Z,83.30
2018-01-19T05:03:19.411Z,83.60
2018-01-19T05:05:46.136Z,82.70
2018-01-19T05:08:12.151Z,82.70
2018-01-19T05:10:38.844Z,82.30
2018-01-19T05:13:05.518Z,82.10
2018-01-19T05:15:31.446Z,81.80
2018-01-19T05:17:58.138Z,80.30
2018-01-19T05:20:24.077Z,80.20
2018-01-19T05:22:50.049Z,79.50
2018-01-19T05:25:16.047Z,79.70
2018-01-19T05:27:42.030Z,79.80
2018-01-19T05:30:08.724Z,80.80
2018-01-19T05:32:34.664Z,80.70
2018-01-19T05:35:00.608Z,81.50
2018-01-19T05:37:26.579Z,81.10
2018-01-19T05:39:53.279Z,80.80
2018-01-19T05:42:19.242Z,80.80
2018-01-19T05:44:45.267Z,79.90
2018-01-19T05:47:11.194Z,79.00
2018-01-19T05:49:37.946Z,77.70
2018-01-19T05:52:03.885Z,77.70
2018-01-19T05:54:29.858Z,77.60
2018-01-19T05:56:56.516Z,77.50
2018-01-19T05:59:23.222Z,77.70
2018-01-19T06:01:49.184Z,77.70
2018-01-19T06:04:15.155Z,77.40
2018-01-19T06:06:41.092Z,76.60
2018-01-19T06:09:07.029Z,76.80
2018-01-19T06:11:32.962Z,77.20
2018-01-19T06:13:58.914Z,77.10
2018-01-19T06:16:24.847Z,77.10
2018-01-19T06:18:50.837Z,77.80
2018-01-19T06:21:16.835Z,78.10
2018-01-19T06:23:43.640Z,78.80
2018-01-19T06:26:10.358Z,79.40
2018-01-19T06:28:36.297Z,79.30
2018-01-19T06:31:02.259Z,80.00
2018-01-19T06:33:28.971Z,81.90
2018-01-19T06:35:54.932Z,81.70
2018-01-19T06:38:20.894Z,82.50
2018-01-19T06:40:46.930Z,83.40
2018-01-19T06:43:12.895Z,83.30
2018-01-19T06:45:38.867Z,83.90
2018-01-19T06:48:04.830Z,83.80
2018-01-19T06:50:31.525Z,83.90
2018-01-19T06:52:57.490Z,84.50
2018-01-19T06:55:23.472Z,83.60
2018-01-19T06:57:49.482Z,83.30
2018-01-19T07:00:15.406Z,83.10
2018-01-19T07:02:41.359Z,83.10
2018-01-19T07:05:08.075Z,81.70
2018-01-19T07:07:34.034Z,81.60
2018-01-19T07:10:00.738Z,81.00
2018-01-19T07:12:26.749Z,80.90
2018-01-19T07:14:53.499Z,80.20
2018-01-19T07:17:19.505Z,80.20
2018-01-19T07:19:45.490Z,79.60
2018-01-19T07:22:11.499Z,79.20
2018-01-19T07:24:38.186Z,79.00
2018-01-19T07:27:04.128Z,78.90
2018-01-19T07:29:30.062Z,78.50
2018-01-19T07:31:56.005Z,78.40
2018-01-19T07:34:22.000Z,77.80
2018-01-19T07:36:48.010Z,78.00
2018-01-19T07:39:21.806Z,77.20
2018-01-19T07:41:49.241Z,76.60
2018-01-19T07:44:15.265Z,76.50
2018-01-19T07:46:41.220Z,77.00
2018-01-19T07:49:14.096Z,76.50
2018-01-19T07:51:40.062Z,76.20
2018-01-19T07:54:06.303Z,75.90
2018-01-19T07:56:32.271Z,76.30
2018-01-19T07:58:59.002Z,77.10
2018-01-19T08:01:24.941Z,77.00
2018-01-19T08:03:50.922Z,77.40
2018-01-19T08:06:17.608Z,77.60
2018-01-19T08:08:43.573Z,77.50
2018-01-19T08:11:09.534Z,77.80
2018-01-19T08:13:36.213Z,78.50
2018-01-19T08:16:02.174Z,78.40
2018-01-19T08:18:28.121Z,77.50
2018-01-19T08:20:54.066Z,76.20
2018-01-19T08:23:20.024Z,76.00
2018-01-19T08:25:46.738Z,76.60
2018-01-19T08:28:12.781Z,76.60
2018-01-19T08:30:38.710Z,77.20
2018-01-19T08:33:04.678Z,76.30
2018-01-19T08:35:31.386Z,76.10
2018-01-19T08:37:57.347Z,76.10
2018-01-19T08:40:23.281Z,76.20
2018-01-19T08:42:49.254Z,76.50
2018-01-19T08:45:15.227Z,76.00
2018-01-19T08:47:41.238Z,76.10
2018-01-19T08:50:07.182Z,75.10
2018-01-19T08:52:33.135Z,74.60
2018-01-19T08:54:59.089Z,74.30
2018-01-19T08:57:25.039Z,74.40
2018-01-19T08:59:51.012Z,74.40
2018-01-19T09:02:16.995Z,73.60
2018-01-19T09:04:42.967Z,73.10
2018-01-19T09:07:08.926Z,73.00
2018-01-19T09:09:34.854Z,71.90
2018-01-19T09:12:00.795Z,72.40
2018-01-19T09:14:26.730Z,72.80
2018-01-19T09:16:52.670Z,71.60
2018-01-19T09:19:18.630Z,71.60
2018-01-19T09:21:44.601Z,72.40
2018-01-19T09:24:10.577Z,70.60
2018-01-19T09:26:36.497Z,69.70
2018-01-19T09:29:02.446Z,69.70
2018-01-19T09:31:28.390Z,69.50
2018-01-19T09:34:01.189Z,69.80
2018-01-19T09:36:27.111Z,69.30
2018-01-19T09:38:53.064Z,70.00
2018-01-19T09:41:19.042Z,69.20
2018-01-19T09:43:45.766Z,68.10
2018-01-19T09:46:11.777Z,68.10
2018-01-19T09:48:37.723Z,67.00
2018-01-19T09:51:03.688Z,67.00
2018-01-19T09:53:30.407Z,66.30
2018-01-19T09:55:56.336Z,66.30
2018-01-19T09:58:22.264Z,65.50
2018-01-19T10:00:48.275Z,63.70
2018-01-19T10:03:14.354Z,63.00
2018-01-19T10:05:40.267Z,63.70
2018-01-19T10:08:06.202Z,63.60
2018-01-19T10:10:32.150Z,64.10
2018-01-19T10:12:58.087Z,63.30
2018-01-19T10:15:24.038Z,62.10
2018-01-19T10:17:50.028Z,61.90
2018-01-19T10:20:16.042Z,64.00
2018-01-19T10:22:42.071Z,61.80
2018-01-19T10:25:08.750Z,61.40
2018-01-19T10:27:34.702Z,61.40
2018-01-19T10:30:00.637Z,60.30
2018-01-19T10:32:26.580Z,60.60
2018-01-19T10:34:52.503Z,61.10
2018-01-19T10:37:18.466Z,58.80
2018-01-19T10:39:44.461Z,58.90
2018-01-19T10:42:10.406Z,58.60
2018-01-19T10:44:37.862Z,58.10
2018-01-19T10:47:03.804Z,58.10
2018-01-19T10:49:29.750Z,59.50
2018-01-19T10:51:55.770Z,57.90
2018-01-19T10:54:21.785Z,57.90
2018-01-19T10:56:47.836Z,56.90
2018-01-19T10:59:13.877Z,56.00
2018-01-19T11:01:39.835Z,55.10
2018-01-19T11:04:05.784Z,56.30
2018-01-19T11:06:31.730Z,55.20
2018-01-19T11:08:57.796Z,54.60
2018-01-19T11:11:24.469Z,53.60
2018-01-19T11:13:50.478Z,53.60
2018-01-19T11:16:17.290Z,53.50
2018-01-19T11:18:43.423Z,53.40
2018-01-19T11:21:09.373Z,53.30
2018-01-19T11:23:35.324Z,54.10
2018-01-19T11:26:01.252Z,56.20
2018-01-19T11:28:27.216Z,55.00
2018-01-19T11:30:53.886Z,54.90
2018-01-19T11:33:19.844Z,54.80
2018-01-19T11:35:45.822Z,53.80
2018-01-19T11:38:12.550Z,54.30
2018-01-19T11:40:38.486Z,54.30
2018-01-19T11:43:04.495Z,55.20
2018-01-19T11:45:30.422Z,55.60
2018-01-19T11:47:56.368Z,55.20
2018-01-19T11:50:22.311Z,55.40
2018-01-19T11:52:48.993Z,55.30
2018-01-19T11:55:15.677Z,54.20
2018-01-19T11:57:41.687Z,54.00
2018-01-19T12:00:08.406Z,53.90
2018-01-19T12:02:34.375Z,53.90
2018-01-19T12:05:01.070Z,52.10
2018-01-19T12:07:27.003Z,51.80
2018-01-19T12:09:52.994Z,52.20
2018-01-19T12:12:18.939Z,51.40
2018-01-19T12:14:45.665Z,51.60
2018-01-19T12:17:11.630Z,51.50
2018-01-19T12:19:38.317Z,50.70
2018-01-19T12:22:04.254Z,50.60
2018-01-19T12:24:30.197Z,51.30
2018-01-19T12:26:56.119Z,50.50
2018-01-19T12:29:28.950Z,51.30
2018-01-19T12:31:54.894Z,51.60
2018-01-19T12:34:20.858Z,51.60
2018-01-19T12:36:46.821Z,51.60
2018-01-19T12:39:12.811Z,51.60
2018-01-19T12:41:39.524Z,51.30
2018-01-19T12:44:05.475Z,51.20
2018-01-19T12:46:31.407Z,51.30
2018-01-19T12:48:57.349Z,51.20
2018-01-19T12:51:23.308Z,51.60
2018-01-19T12:53:50.038Z,51.30
2018-01-19T12:56:16.004Z,51.20
2018-01-19T12:58:41.999Z,52.10
2018-01-19T13:01:07.974Z,52.90
2018-01-19T13:03:34.663Z,52.10
2018-01-19T13:06:00.597Z,52.00
2018-01-19T13:08:26.538Z,52.10
2018-01-19T13:10:52.560Z,51.90
2018-01-19T13:13:18.685Z,52.20
2018-01-19T13:15:44.646Z,52.20
2018-01-19T13:18:10.628Z,51.80
2018-01-19T13:20:37.293Z,52.50
2018-01-19T13:23:03.970Z,53.50
2018-01-19T13:25:29.929Z,53.40
2018-01-19T13:27:55.884Z,53.40
2018-01-19T13:30:21.857Z,53.10
2018-01-19T13:32:47.813Z,54.10
2018-01-19T13:35:13.766Z,53.30
2018-01-19T13:37:39.705Z,52.90
2018-01-19T13:40:05.656Z,53.40
2018-01-19T13:42:31.627Z,52.90
2018-01-19T13:44:58.323Z,52.00
2018-01-19T13:47:24.291Z,52.10
2018-01-19T13:49:50.250Z,51.50
2018-01-19T13:52:16.980Z,51.20
2018-01-19T13:54:42.995Z,51.10
2018-01-19T13:57:08.931Z,51.10
2018-01-19T13:59:34.928Z,51.00
2018-01-19T14:02:00.866Z,50.30
2018-01-19T14:04:26.813Z,48.80
2018-01-19T14:06:52.798Z,48.60
2018-01-19T14:09:19.565Z,48.00
2018-01-19T14:11:46.264Z,48.10
2018-01-19T14:14:12.288Z,48.00
2018-01-19T14:16:38.239Z,48.50
2018-01-19T14:19:04.201Z,48.90
2018-01-19T14:21:30.864Z,50.10
2018-01-19T14:23:57.534Z,48.10
2018-01-19T14:26:23.566Z,48.00
2018-01-19T14:28:57.402Z,48.70
2018-01-19T14:31:23.350Z,48.60
2018-01-19T14:33:49.327Z,49.10
2018-01-19T14:36:15.304Z,49.80
2018-01-19T14:38:41.275Z,49.90
2018-01-19T14:41:07.236Z,49.70
2018-01-19T14:43:33.175Z,48.70
2018-01-19T14:45:59.865Z,48.80
2018-01-19T14:48:25.806Z,49.40
2018-01-19T14:50:51.780Z,48.60
2018-01-19T14:53:17.728Z,48.70
2018-01-19T14:55:43.824Z,49.20
2018-01-19T14:58:09.774Z,49.80
2018-01-19T15:00:35.800Z,50.20
2018-01-19T15:03:01.772Z,50.60
2018-01-19T15:05:28.450Z,50.70
2018-01-19T15:07:54.416Z,50.60
2018-01-19T15:10:20.415Z,50.80
2018-01-19T15:12:46.510Z,51.30
2018-01-19T15:15:12.530Z,51.50
2018-01-19T15:17:38.466Z,52.00
2018-01-19T15:20:04.420Z,52.20
2018-01-19T15:22:30.421Z,52.20
2018-01-19T15:24:56.360Z,52.70
2018-01-19T15:27:22.291Z,52.90
2018-01-19T15:29:48.289Z,53.20
2018-01-19T15:32:15.100Z,53.50
2018-01-19T15:34:41.059Z,53.50
2018-01-19T15:37:07.022Z,53.40
2018-01-19T15:39:32.963Z,53.90
2018-01-19T15:41:58.910Z,54.00
2018-01-19T15:44:24.886Z,54.30
2018-01-19T15:46:50.864Z,54.50
2018-01-19T15:49:16.836Z,54.70
2018-01-19T15:51:42.806Z,54.60
2018-01-19T15:54:08.733Z,54.40
2018-01-19T15:56:34.749Z,55.20
2018-01-19T15:59:00.685Z,56.40
2018-01-19T16:01:26.641Z,57.30
2018-01-19T16:03:53.331Z,59.80
2018-01-19T16:06:19.373Z,59.80
2018-01-19T16:08:45.368Z,61.30
2018-01-19T16:11:11.317Z,62.90
2018-01-19T16:13:38.006Z,64.50
2018-01-19T16:16:03.977Z,64.50
2018-01-19T16:18:29.926Z,65.30
2018-01-19T16:20:55.881Z,66.20
2018-01-19T16:23:22.612Z,68.00
2018-01-19T16:25:48.635Z,67.90
2018-01-19T16:28:14.681Z,68.50
2018-01-19T16:30:40.687Z,69.70
2018-01-19T16:33:06.631Z,71.10
2018-01-19T16:35:32.571Z,71.70
2018-01-19T16:37:58.540Z,72.90
2018-01-19T16:40:24.495Z,74.30
2018-01-19T16:42:50.456Z,74.40
2018-01-19T16:45:16.457Z,74.80
2018-01-19T16:47:43.158Z,75.80
2018-01-19T16:50:09.122Z,75.80
2018-01-19T16:52:35.064Z,76.60
2018-01-19T16:55:01.780Z,78.90
2018-01-19T16:57:27.756Z,78.50
2018-01-19T16:59:54.433Z,79.50
2018-01-19T17:02:20.406Z,79.30
2018-01-19T17:04:46.393Z,79.70
2018-01-19T17:07:12.370Z,80.20
2018-01-19T17:09:38.313Z,80.60
2018-01-19T17:12:04.249Z,81.10
2018-01-19T17:14:30.986Z,81.20
2018-01-19T17:16:56.931Z,81.60
2018-01-19T17:19:22.884Z,81.80
2018-01-19T17:21:48.888Z,82.00
2018-01-19T17:24:14.859Z,82.30
2018-01-19T17:26:40.781Z,82.60
2018-01-19T17:29:06.716Z,82.60
2018-01-19T17:31:32.660Z,81.50
2018-01-19T17:33:58.617Z,80.40
2018-01-19T17:36:25.293Z,79.20
2018-01-19T17:38:51.294Z,79.80
2018-01-19T17:41:18.096Z,78.60
2018-01-19T17:43:44.082Z,78.50
2018-01-19T17:46:10.830Z,78.10
2018-01-19T17:48:36.775Z,77.90
2018-01-19T17:51:03.450Z,78.10
2018-01-19T17:53:29.366Z,77.90
2018-01-19T17:55:56.050Z,79.00
2018-01-19T17:58:22.023Z,79.00
2018-01-19T18:00:49.488Z,80.00
2018-01-19T18:03:15.449Z,80.00
2018-01-19T18:05:42.409Z,80.60
2018-01-19T18:08:09.120Z,80.80
2018-01-19T18:10:35.065Z,80.80
2018-01-19T18:13:01.013Z,80.20
2018-01-19T18:15:27.068Z,79.90
2018-01-19T18:17:53.031Z,79.80
2018-01-19T18:20:18.999Z,80.20
2018-01-19T18:22:45.015Z,80.60
2018-01-19T18:25:10.978Z,80.50
2018-01-19T18:27:44.007Z,81.30
2018-01-19T18:30:10.005Z,81.40
2018-01-19T18:32:35.995Z,81.10
2018-01-19T18:35:02.699Z,81.10
2018-01-19T18:37:28.626Z,81.10
2018-01-19T18:39:54.559Z,81.20
2018-01-19T18:42:20.574Z,82.10
2018-01-19T18:44:46.526Z,81.70
2018-01-19T18:47:12.510Z,82.00
2018-01-19T18:49:39.230Z,82.70
2018-01-19T18:52:05.169Z,82.70
2018-01-19T18:54:31.108Z,82.90
2018-01-19T18:56:57.050Z,83.00
2018-01-19T18:59:23.074Z,83.60
2018-01-19T19:01:49.050Z,83.70
2018-01-19T19:04:15.772Z,83.70
2018-01-19T19:06:41.716Z,83.70
2018-01-19T19:09:09.115Z,84.10
2018-01-19T19:11:35.813Z,84.60
2018-01-19T19:14:01.766Z,84.50
2018-01-19T19:16:27.727Z,84.90
2018-01-19T19:18:54.398Z,84.80
2018-01-19T19:21:20.360Z,84.80
2018-01-19T19:23:46.327Z,84.60
2018-01-19T19:26:12.348Z,84.10
2018-01-19T19:28:38.299Z,83.60
2018-01-19T19:31:04.999Z,84.10
2018-01-19T19:33:30.962Z,84.10
2018-01-19T19:35:56.903Z,84.40
2018-01-19T19:38:22.834Z,84.10
2018-01-19T19:40:48.805Z,83.80
2018-01-19T19:43:22.526Z,83.70
2018-01-19T19:45:49.302Z,83.70
2018-01-19T19:48:16.008Z,84.00
2018-01-19T19:50:41.987Z,84.00
2018-01-19T19:53:07.914Z,84.20
2018-01-19T19:55:33.851Z,84.40
2018-01-19T19:57:59.789Z,84.40
2018-01-19T20:00:25.719Z,84.40
2018-01-19T20:02:51.675Z,83.80
2018-01-19T20:05:17.678Z,84.20
2018-01-19T20:07:44.407Z,84.60
2018-01-19T20:10:11.118Z,84.10
2018-01-19T20:12:37.065Z,84.10
2018-01-19T20:15:03.075Z,84.10
2018-01-19T20:17:29.008Z,84.50
2018-01-19T20:19:54.986Z,84.70
2018-01-19T20:22:20.974Z,84.40
2018-01-19T20:24:46.992Z,84.00
2018-01-19T20:27:13.678Z,84.50
2018-01-19T20:29:39.624Z,84.40
2018-01-19T20:32:05.569Z,83.60
2018-01-19T20:34:31.525Z,83.10
2018-01-19T20:36:57.488Z,82.40
2018-01-19T20:39:24.372Z,82.40
2018-01-19T20:41:50.390Z,82.40
2018-01-19T20:44:16.350Z,81.70
2018-01-19T20:46:42.390Z,80.90
2018-01-19T20:49:08.345Z,80.50
2018-01-19T20:51:34.333Z,80.40
2018-01-19T20:54:01.144Z,80.40
2018-01-19T20:56:27.085Z,80.00
2018-01-19T20:58:53.028Z,79.90
2018-01-19T21:01:19.014Z,79.60
2018-01-19T21:03:45.019Z,79.60
2018-01-19T21:06:11.003Z,79.80
2018-01-19T21:08:36.936Z,79.40
2018-01-19T21:11:02.939Z,79.70
2018-01-19T21:13:28.893Z,79.60
2018-01-19T21:15:54.833Z,80.10
2018-01-19T21:18:20.807Z,80.10
2018-01-19T21:20:46.745Z,80.70
2018-01-19T21:23:12.757Z,81.00
2018-01-19T21:25:38.725Z,81.30
2018-01-19T21:28:05.413Z,81.20
2018-01-19T21:30:31.337Z,81.20
2018-01-19T21:32:57.272Z,81.10
2018-01-19T21:35:23.225Z,80.70
2018-01-19T21:37:49.232Z,80.80
2018-01-19T21:40:15.950Z,81.20
2018-01-19T21:42:41.922Z,81.10
2018-01-19T21:45:07.861Z,81.00
2018-01-19T21:47:33.804Z,81.50
2018-01-19T21:49:59.771Z,82.20
2018-01-19T21:52:25.706Z,82.90
2018-01-19T21:54:51.699Z,82.50
2018-01-19T21:57:17.827Z,82.80
2018-01-19T21:59:44.566Z,83.30
2018-01-19T22:02:11.267Z,83.20
2018-01-19T22:04:37.225Z,83.20
2018-01-19T22:07:03.149Z,83.30
2018-01-19T22:09:29.089Z,83.30
2018-01-19T22:11:55.054Z,83.40
2018-01-19T22:14:21.046Z,82.90
2018-01-19T22:16:47.012Z,83.30
2018-01-19T22:19:12.989Z,83.10
2018-01-19T22:21:38.918Z,82.70
2018-01-19T22:24:04.880Z,82.40
2018-01-19T22:26:30.822Z,81.80
2018-01-19T22:28:56.763Z,81.90
2018-01-19T22:31:22.741Z,82.00
2018-01-19T22:33:49.459Z,82.40
2018-01-19T22:36:15.532Z,82.30
2018-01-19T22:38:41.478Z,82.10
2018-01-19T22:41:08.174Z,83.00
2018-01-19T22:43:34.112Z,83.00
2018-01-19T22:46:00.092Z,83.00
2018-01-19T22:48:26.763Z,82.60
2018-01-19T22:50:52.757Z,82.60
2018-01-19T22:53:18.721Z,82.20
2018-01-19T22:55:45.422Z,82.00
2018-01-19T22:58:11.347Z,82.00
2018-01-19T23:00:37.273Z,81.70
2018-01-19T23:03:03.218Z,81.90
2018-01-19T23:05:29.216Z,81.50
2018-01-19T23:07:55.914Z,81.80
2018-01-19T23:10:21.919Z,81.80
2018-01-19T23:12:47.901Z,82.10
2018-01-19T23:15:13.892Z,82.10
2018-01-19T23:17:39.843Z,81.90
2018-01-19T23:20:05.796Z,81.70
2018-01-19T23:22:31.730Z,81.00
2018-01-19T23:24:57.670Z,80.50
2018-01-19T23:27:23.634Z,80.60
2018-01-19T23:29:50.365Z,80.10
2018-01-19T23:32:16.323Z,79.90
2018-01-19T23:34:43.025Z,78.70
2018-01-19T23:37:08.959Z,78.70
2018-01-19T23:39:34.900Z,78.70
2018-01-19T23:42:00.854Z,78.70
2018-01-19T23:44:26.792Z,78.50
2018-01-19T23:46:52.806Z,77.90
2018-01-19T23:49:18.766Z,77.70
2018-01-19T23:51:44.792Z,77.10
2018-01-19T23:54:10.756Z,76.50
2018-01-19T23:56:37.549Z,76.30
2018-01-19T23:59:03.481Z,76.30
